createdAt,value
2022-11-08T00:01:07.054Z,11.10
2022-11-08T00:05:27.620Z,10.90
2022-11-08T00:09:48.108Z,11.00
2022-11-08T00:14:02.232Z,11.00
2022-11-08T00:18:05.735Z,10.70
2022-11-08T00:22:07.510Z,10.40
2022-11-08T00:26:09.586Z,10.40
2022-11-08T00:30:11.482Z,10.70
2022-11-08T00:34:13.225Z,10.50
2022-11-08T00:38:15.132Z,10.70
2022-11-08T00:42:16.975Z,10.60
2022-11-08T00:46:20.775Z,10.70
2022-11-08T00:50:22.432Z,10.80
2022-11-08T00:54:24.332Z,10.70
2022-11-08T00:58:27.852Z,10.70
2022-11-08T01:02:29.855Z,10.50
2022-11-08T01:06:31.836Z,10.80
2022-11-08T01:10:33.580Z,10.60
2022-11-08T01:14:35.256Z,10.30
2022-11-08T01:18:37.441Z,10.60
2022-11-08T01:22:39.133Z,10.50
2022-11-08T01:26:40.813Z,10.50
2022-11-08T01:30:44.171Z,10.70
2022-11-08T01:34:45.886Z,10.30
2022-11-08T01:38:48.170Z,10.70
2022-11-08T01:42:50.066Z,10.50
2022-11-08T01:46:51.734Z,10.50
2022-11-08T01:50:56.197Z,10.80
2022-11-08T01:55:06.903Z,10.40
2022-11-08T01:59:12.051Z,10.40
2022-11-08T02:03:17.956Z,10.30
2022-11-08T02:07:19.941Z,10.20
2022-11-08T02:11:21.770Z,10.20
2022-11-08T02:15:25.901Z,10.60
2022-11-08T02:19:44.669Z,10.50
2022-11-08T02:23:46.372Z,10.50
2022-11-08T02:27:48.105Z,10.40
2022-11-08T02:31:49.748Z,10.70
2022-11-08T02:35:56.073Z,10.40
2022-11-08T02:39:57.842Z,10.50
2022-11-08T02:43:59.575Z,10.40
2022-11-08T02:48:01.523Z,10.50
2022-11-08T02:52:04.029Z,10.30
2022-11-08T02:56:05.802Z,10.20
2022-11-08T03:00:08.205Z,10.20
2022-11-08T03:04:09.925Z,10.30
2022-11-08T03:08:11.701Z,10.20
2022-11-08T03:12:13.529Z,10.40
2022-11-08T03:16:15.325Z,10.30
2022-11-08T03:20:19.569Z,10.50
2022-11-08T03:24:21.328Z,10.40
2022-11-08T03:28:23.659Z,10.40
2022-11-08T03:32:26.664Z,10.40
2022-11-08T03:36:28.370Z,9.90
2022-11-08T03:40:30.158Z,10.30
2022-11-08T03:44:32.627Z,10.20
2022-11-08T03:48:34.285Z,10.10
2022-11-08T03:52:49.717Z,10.10
2022-11-08T03:56:51.378Z,10.10
2022-11-08T04:00:53.201Z,10.50
2022-11-08T04:04:54.988Z,10.40
2022-11-08T04:08:58.811Z,10.20
2022-11-08T04:13:20.317Z,10.30
2022-11-08T04:17:42.100Z,10.50
2022-11-08T04:21:49.267Z,10.40
2022-11-08T04:25:56.249Z,9.90
2022-11-08T04:29:57.946Z,9.60
2022-11-08T04:33:59.665Z,9.70
2022-11-08T04:38:02.418Z,9.80
2022-11-08T04:42:04.303Z,9.50
2022-11-08T04:46:08.739Z,9.50
2022-11-08T04:50:10.645Z,9.60
2022-11-08T04:54:12.412Z,9.40
2022-11-08T04:58:14.069Z,9.80
2022-11-08T05:02:15.937Z,9.90
2022-11-08T05:06:23.760Z,10.10
2022-11-08T05:10:25.448Z,9.70
2022-11-08T05:14:27.132Z,9.60
2022-11-08T05:18:29.997Z,9.50
2022-11-08T05:22:50.179Z,9.60
2022-11-08T05:26:51.824Z,9.80
2022-11-08T05:30:55.728Z,9.60
2022-11-08T05:34:57.495Z,9.70
2022-11-08T05:38:59.430Z,9.70
2022-11-08T05:43:01.207Z,9.60
2022-11-08T05:47:03.268Z,9.80
2022-11-08T05:51:05.224Z,9.70
2022-11-08T05:55:07.962Z,10.00
2022-11-08T05:59:09.754Z,9.90
2022-11-08T06:03:11.694Z,9.60
2022-11-08T06:07:13.815Z,9.90
2022-11-08T06:11:18.700Z,9.60
2022-11-08T06:15:20.729Z,9.40
2022-11-08T06:19:22.570Z,9.20
2022-11-08T06:23:24.441Z,9.40
2022-11-08T06:27:26.454Z,9.70
2022-11-08T06:31:28.121Z,9.80
2022-11-08T06:35:29.814Z,10.00
2022-11-08T06:39:31.675Z,10.10
2022-11-08T06:43:34.078Z,9.20
2022-11-08T06:47:35.741Z,8.90
2022-11-08T06:51:37.417Z,9.10
2022-11-08T06:55:39.428Z,9.00
2022-11-08T06:59:41.286Z,9.00
2022-11-08T07:03:42.971Z,8.80
2022-11-08T07:07:44.992Z,8.10
2022-11-08T07:11:46.719Z,8.60
2022-11-08T07:15:48.681Z,8.40
2022-11-08T07:19:50.836Z,9.00
2022-11-08T07:23:52.496Z,9.40
2022-11-08T07:28:02.995Z,9.80
2022-11-08T07:32:05.146Z,9.50
2022-11-08T07:36:07.057Z,9.70
2022-11-08T07:40:10.006Z,9.50
2022-11-08T07:44:11.744Z,9.80
2022-11-08T07:48:13.984Z,10.00
2022-11-08T07:52:16.048Z,10.00
2022-11-08T07:56:17.941Z,9.60
2022-11-08T08:00:19.705Z,10.00
2022-11-08T08:04:21.397Z,10.10
2022-11-08T08:08:23.201Z,10.60
2022-11-08T08:12:24.904Z,10.20
2022-11-08T08:16:26.566Z,10.10
2022-11-08T08:20:29.621Z,10.40
2022-11-08T08:24:31.382Z,10.40
2022-11-08T08:28:33.277Z,10.50
2022-11-08T08:32:35.038Z,10.00
2022-11-08T08:36:36.775Z,10.20
2022-11-08T08:40:38.679Z,10.40
2022-11-08T08:44:40.329Z,10.70
2022-11-08T08:48:42.059Z,10.50
2022-11-08T08:52:43.749Z,10.60
2022-11-08T08:56:45.448Z,11.40
2022-11-08T09:05:10.933Z,11.40
2022-11-08T09:09:12.712Z,12.00
2022-11-08T09:13:14.431Z,11.80
2022-11-08T09:17:16.135Z,12.00
2022-11-08T09:21:17.857Z,11.90
2022-11-08T09:25:19.718Z,11.20
2022-11-08T09:29:21.550Z,10.90
2022-11-08T09:33:23.314Z,10.80
2022-11-08T09:37:25.612Z,11.30
2022-11-08T09:41:36.108Z,12.00
2022-11-08T09:45:46.388Z,12.20
2022-11-08T09:50:18.956Z,12.40
2022-11-08T09:54:35.094Z,11.80
2022-11-08T09:59:02.438Z,12.20
2022-11-08T10:03:04.288Z,12.40
2022-11-08T10:07:23.776Z,12.60
2022-11-08T10:11:47.415Z,12.40
2022-11-08T10:15:55.100Z,12.40
2022-11-08T10:20:06.866Z,12.50
2022-11-08T10:24:39.572Z,12.90
2022-11-08T10:28:50.068Z,12.70
2022-11-08T10:32:55.114Z,12.60
2022-11-08T10:37:03.523Z,12.90
2022-11-08T10:41:28.437Z,13.20
2022-11-08T10:45:30.113Z,13.00
2022-11-08T10:49:33.173Z,13.30
2022-11-08T10:53:43.407Z,13.50
2022-11-08T10:57:45.150Z,13.50
2022-11-08T11:01:50.786Z,13.70
2022-11-08T11:06:18.345Z,13.80
2022-11-08T11:10:29.357Z,13.90
2022-11-08T11:14:31.035Z,14.20
2022-11-08T11:18:34.515Z,14.30
2022-11-08T11:22:36.236Z,14.60
2022-11-08T11:26:48.032Z,14.80
2022-11-08T11:31:00.951Z,14.90
2022-11-08T11:35:05.359Z,15.30
2022-11-08T11:39:23.416Z,15.30
2022-11-08T11:43:45.521Z,15.40
2022-11-08T11:47:53.491Z,15.40
2022-11-08T11:51:56.600Z,15.10
2022-11-08T11:56:07.434Z,15.10
2022-11-08T12:00:12.974Z,14.40
2022-11-08T12:04:47.972Z,14.50
2022-11-08T12:09:23.498Z,14.20
2022-11-08T12:14:01.504Z,14.30
2022-11-08T12:18:21.682Z,14.70
2022-11-08T12:22:59.965Z,14.90
2022-11-08T12:27:29.010Z,15.20
2022-11-08T12:31:35.265Z,15.40
2022-11-08T12:35:51.960Z,15.50
2022-11-08T12:40:01.242Z,15.30
2022-11-08T12:44:23.207Z,15.30
2022-11-08T12:48:39.176Z,15.50
2022-11-08T12:53:17.798Z,15.40
2022-11-08T12:57:22.174Z,15.60
2022-11-08T13:01:24.175Z,15.40
2022-11-08T13:05:33.631Z,15.50
2022-11-08T13:09:58.248Z,15.50
2022-11-08T13:14:00.680Z,15.80
2022-11-08T13:18:09.752Z,15.60
2022-11-08T13:22:31.575Z,15.70
2022-11-08T13:26:41.943Z,16.00
2022-11-08T13:30:44.031Z,15.70
2022-11-08T13:34:59.430Z,15.70
2022-11-08T13:39:03.871Z,15.70
2022-11-08T13:43:24.156Z,15.70
2022-11-08T13:47:34.917Z,15.80
2022-11-08T13:51:41.964Z,15.90
2022-11-08T13:55:43.612Z,16.10
2022-11-08T13:59:45.658Z,16.10
2022-11-08T14:03:47.401Z,16.20
2022-11-08T14:08:14.838Z,16.20
2022-11-08T14:12:43.806Z,16.20
2022-11-08T14:17:01.177Z,16.30
2022-11-08T14:21:04.976Z,16.20
2022-11-08T14:25:14.655Z,16.10
2022-11-08T14:29:18.955Z,16.30
2022-11-08T14:33:22.030Z,16.60
2022-11-08T14:37:27.216Z,16.50
2022-11-08T14:41:30.532Z,16.50
2022-11-08T14:45:32.398Z,16.50
2022-11-08T14:49:36.556Z,16.50
2022-11-08T14:53:50.579Z,16.50
2022-11-08T14:57:52.341Z,16.40
2022-11-08T15:01:54.068Z,16.40
2022-11-08T15:05:59.423Z,16.40
2022-11-08T15:10:10.091Z,16.70
2022-11-08T15:14:19.076Z,16.40
2022-11-08T15:18:38.560Z,16.40
2022-11-08T15:22:40.480Z,16.50
2022-11-08T15:27:05.869Z,16.50
2022-11-08T15:31:13.266Z,16.40
2022-11-08T15:35:22.979Z,16.40
2022-11-08T15:39:32.282Z,16.30
2022-11-08T15:43:38.868Z,16.30
2022-11-08T15:47:46.221Z,16.10
2022-11-08T15:51:49.840Z,16.20
2022-11-08T15:55:56.885Z,16.00
2022-11-08T15:59:58.835Z,15.80
2022-11-08T16:04:00.484Z,15.70
2022-11-08T16:08:02.197Z,15.60
2022-11-08T16:12:04.304Z,15.60
2022-11-08T16:16:15.187Z,15.30
2022-11-08T16:20:27.824Z,15.20
2022-11-08T16:24:29.517Z,15.20
2022-11-08T16:28:36.226Z,15.10
2022-11-08T16:32:37.941Z,15.00
2022-11-08T16:36:39.665Z,15.20
2022-11-08T16:40:41.951Z,14.90
2022-11-08T16:44:44.344Z,14.60
2022-11-08T16:48:49.306Z,14.70
2022-11-08T16:52:51.868Z,14.60
2022-11-08T16:57:13.674Z,14.40
2022-11-08T17:01:27.007Z,14.30
2022-11-08T17:05:28.756Z,14.30
2022-11-08T17:09:30.594Z,14.20
2022-11-08T17:13:37.505Z,14.10
2022-11-08T17:17:43.141Z,14.10
2022-11-08T17:21:45.859Z,14.30
2022-11-08T17:25:47.757Z,13.90
2022-11-08T17:29:49.411Z,13.80
2022-11-08T17:33:51.238Z,13.70
2022-11-08T17:37:53.723Z,13.90
2022-11-08T17:41:55.470Z,13.70
2022-11-08T17:45:58.396Z,13.60
2022-11-08T17:50:00.091Z,13.50
2022-11-08T17:54:04.570Z,13.70
2022-11-08T17:58:06.450Z,13.40
2022-11-08T18:02:09.277Z,13.30
2022-11-08T18:06:14.412Z,13.10
2022-11-08T18:10:16.529Z,13.20
2022-11-08T18:14:27.067Z,13.10
2022-11-08T18:18:30.064Z,13.00
2022-11-08T18:22:32.874Z,13.00
2022-11-08T18:26:34.753Z,12.90
2022-11-08T18:30:36.637Z,13.10
2022-11-08T18:34:38.444Z,12.90
2022-11-08T18:38:41.975Z,12.80
2022-11-08T18:42:43.655Z,13.00
2022-11-08T18:46:45.406Z,12.80
2022-11-08T18:50:50.821Z,12.60
2022-11-08T18:54:52.522Z,12.60
2022-11-08T18:58:54.378Z,12.50
2022-11-08T19:02:56.022Z,12.60
2022-11-08T19:06:57.759Z,12.60
2022-11-08T19:11:03.105Z,12.50
2022-11-08T19:15:05.087Z,12.70
2022-11-08T19:19:06.832Z,12.60
2022-11-08T19:23:08.553Z,12.80
2022-11-08T19:27:10.456Z,12.90
2022-11-08T19:31:14.027Z,12.80
2022-11-08T19:35:24.628Z,12.60
2022-11-08T19:39:26.452Z,12.10
2022-11-08T19:43:28.185Z,12.20
2022-11-08T19:47:29.863Z,12.40
2022-11-08T19:51:36.844Z,12.40
2022-11-08T19:55:38.674Z,12.50
2022-11-08T19:59:40.319Z,12.10
2022-11-08T20:03:42.256Z,12.30
2022-11-08T20:07:49.593Z,12.50
2022-11-08T20:11:51.504Z,12.20
2022-11-08T20:15:54.544Z,12.20
2022-11-08T20:19:56.291Z,12.10
2022-11-08T20:23:58.408Z,12.10
2022-11-08T20:28:02.715Z,12.00
2022-11-08T20:32:04.653Z,12.00
2022-11-08T20:36:11.638Z,12.00
2022-11-08T20:40:14.293Z,11.80
2022-11-08T20:44:16.474Z,12.00
2022-11-08T20:48:18.370Z,11.90
2022-11-08T20:52:22.507Z,12.20
2022-11-08T20:56:25.339Z,11.90
2022-11-08T21:00:52.105Z,12.30
2022-11-08T21:04:48.991Z,12.00
2022-11-08T21:09:01.826Z,11.70
2022-11-08T21:13:05.055Z,11.80
2022-11-08T21:17:21.488Z,11.80
2022-11-08T21:21:29.525Z,12.00
2022-11-08T21:25:32.262Z,12.10
2022-11-08T21:29:34.396Z,12.50
2022-11-08T21:33:36.460Z,12.60
2022-11-08T21:37:38.162Z,12.40
2022-11-08T21:41:40.028Z,12.50
2022-11-08T21:45:41.979Z,12.70
2022-11-08T21:49:43.688Z,12.70
2022-11-08T21:53:54.023Z,12.90
2022-11-08T21:57:56.601Z,12.80
2022-11-08T22:01:58.580Z,12.60
2022-11-08T22:06:00.356Z,12.60
2022-11-08T22:10:02.097Z,12.70
2022-11-08T22:14:04.088Z,12.40
2022-11-08T22:18:15.366Z,12.40
2022-11-08T22:22:19.260Z,12.60
2022-11-08T22:26:21.001Z,12.80
2022-11-08T22:30:22.684Z,13.00
2022-11-08T22:34:24.525Z,13.00
2022-11-08T22:38:27.657Z,12.80
2022-11-08T22:42:29.540Z,12.90
2022-11-08T22:46:31.433Z,12.70
2022-11-08T22:50:33.533Z,12.90
2022-11-08T22:54:35.316Z,12.70
2022-11-08T22:58:42.280Z,12.90
2022-11-08T23:02:46.082Z,12.60
2022-11-08T23:06:47.814Z,12.60
2022-11-08T23:11:08.379Z,13.00
2022-11-08T23:15:29.268Z,13.00
2022-11-08T23:19:49.424Z,12.70
2022-11-08T23:24:09.652Z,12.70
2022-11-08T23:28:32.845Z,12.60
2022-11-08T23:32:35.090Z,12.90
2022-11-08T23:36:36.833Z,13.10
2022-11-08T23:40:57.165Z,12.90
2022-11-08T23:44:58.844Z,12.60
2022-11-08T23:49:01.907Z,12.60
2022-11-08T23:53:03.678Z,12.90
2022-11-08T23:57:05.910Z,13.00
